sensor_id;sensor_type;location;lat;lon;timestamp;temperature;humidity
7666;DHT22;3875;46.562;4.898;2023-06-10T00:00:38;21.10;86.40
7666;DHT22;3875;46.562;4.898;2023-06-10T00:03:06;21.10;86.40
7666;DHT22;3875;46.562;4.898;2023-06-10T00:05:32;21.00;86.40
7666;DHT22;3875;46.562;4.898;2023-06-10T00:08:00;21.00;86.40
7666;DHT22;3875;46.562;4.898;2023-06-10T00:10:27;20.90;86.70
7666;DHT22;3875;46.562;4.898;2023-06-10T00:12:52;20.90;87.00
7666;DHT22;3875;46.562;4.898;2023-06-10T00:15:18;20.90;87.00
7666;DHT22;3875;46.562;4.898;2023-06-10T00:17:44;20.90;86.80
7666;DHT22;3875;46.562;4.898;2023-06-10T00:20:10;20.90;86.80
7666;DHT22;3875;46.562;4.898;2023-06-10T00:22:39;20.90;87.00
7666;DHT22;3875;46.562;4.898;2023-06-10T00:25:05;20.80;87.00
7666;DHT22;3875;46.562;4.898;2023-06-10T00:27:31;20.80;87.20
7666;DHT22;3875;46.562;4.898;2023-06-10T00:30:04;20.80;87.20
7666;DHT22;3875;46.562;4.898;2023-06-10T00:32:35;20.90;87.10
7666;DHT22;3875;46.562;4.898;2023-06-10T00:35:04;20.80;87.10
7666;DHT22;3875;46.562;4.898;2023-06-10T00:37:30;20.80;87.20
7666;DHT22;3875;46.562;4.898;2023-06-10T00:39:56;20.80;87.40
7666;DHT22;3875;46.562;4.898;2023-06-10T00:42:21;20.80;87.30
7666;DHT22;3875;46.562;4.898;2023-06-10T00:44:53;20.80;87.40
7666;DHT22;3875;46.562;4.898;2023-06-10T00:47:20;20.70;87.50
7666;DHT22;3875;46.562;4.898;2023-06-10T00:49:46;20.70;87.50
7666;DHT22;3875;46.562;4.898;2023-06-10T00:52:14;20.80;87.40
7666;DHT22;3875;46.562;4.898;2023-06-10T00:54:40;20.80;87.40
7666;DHT22;3875;46.562;4.898;2023-06-10T00:57:06;20.80;87.30
7666;DHT22;3875;46.562;4.898;2023-06-10T00:59:32;20.90;87.30
7666;DHT22;3875;46.562;4.898;2023-06-10T01:01:57;20.90;87.30
7666;DHT22;3875;46.562;4.898;2023-06-10T01:04:23;20.90;87.30
7666;DHT22;3875;46.562;4.898;2023-06-10T01:13:01;20.90;87.40
7666;DHT22;3875;46.562;4.898;2023-06-10T01:15:33;20.90;87.70
7666;DHT22;3875;46.562;4.898;2023-06-10T01:18:07;20.90;87.60
7666;DHT22;3875;46.562;4.898;2023-06-10T01:20:41;20.90;87.60
7666;DHT22;3875;46.562;4.898;2023-06-10T01:23:09;20.90;87.70
7666;DHT22;3875;46.562;4.898;2023-06-10T01:25:40;20.90;87.60
7666;DHT22;3875;46.562;4.898;2023-06-10T01:28:13;20.90;87.70
7666;DHT22;3875;46.562;4.898;2023-06-10T01:30:57;20.90;87.80
7666;DHT22;3875;46.562;4.898;2023-06-10T01:33:29;20.90;87.80
7666;DHT22;3875;46.562;4.898;2023-06-10T01:35:58;20.80;87.80
7666;DHT22;3875;46.562;4.898;2023-06-10T01:38:26;20.80;88.00
7666;DHT22;3875;46.562;4.898;2023-06-10T01:40:53;20.70;88.00
7666;DHT22;3875;46.562;4.898;2023-06-10T01:43:20;20.70;88.10
7666;DHT22;3875;46.562;4.898;2023-06-10T01:45:46;20.60;88.40
7666;DHT22;3875;46.562;4.898;2023-06-10T01:48:12;20.60;88.60
7666;DHT22;3875;46.562;4.898;2023-06-10T01:50:37;20.50;88.70
7666;DHT22;3875;46.562;4.898;2023-06-10T01:53:04;20.50;88.90
7666;DHT22;3875;46.562;4.898;2023-06-10T01:55:30;20.50;89.00
7666;DHT22;3875;46.562;4.898;2023-06-10T01:57:56;20.50;88.90
7666;DHT22;3875;46.562;4.898;2023-06-10T02:00:22;20.50;88.90
7666;DHT22;3875;46.562;4.898;2023-06-10T02:02:48;20.50;89.00
7666;DHT22;3875;46.562;4.898;2023-06-10T02:05:13;20.50;88.80
7666;DHT22;3875;46.562;4.898;2023-06-10T02:07:39;20.50;88.60
7666;DHT22;3875;46.562;4.898;2023-06-10T02:10:06;20.50;88.50
7666;DHT22;3875;46.562;4.898;2023-06-10T02:12:31;20.60;88.50
7666;DHT22;3875;46.562;4.898;2023-06-10T02:14:57;20.60;88.40
7666;DHT22;3875;46.562;4.898;2023-06-10T02:17:23;20.70;88.30
7666;DHT22;3875;46.562;4.898;2023-06-10T02:19:49;20.70;88.20
7666;DHT22;3875;46.562;4.898;2023-06-10T02:22:22;20.80;88.00
7666;DHT22;3875;46.562;4.898;2023-06-10T02:24:48;20.80;87.90
7666;DHT22;3875;46.562;4.898;2023-06-10T02:27:15;20.80;87.90
7666;DHT22;3875;46.562;4.898;2023-06-10T02:29:40;20.80;88.00
7666;DHT22;3875;46.562;4.898;2023-06-10T02:32:07;20.80;88.00
7666;DHT22;3875;46.562;4.898;2023-06-10T02:34:33;20.80;88.00
7666;DHT22;3875;46.562;4.898;2023-06-10T02:36:59;20.80;88.00
7666;DHT22;3875;46.562;4.898;2023-06-10T02:39:24;20.80;88.00
7666;DHT22;3875;46.562;4.898;2023-06-10T02:41:50;20.80;88.00
7666;DHT22;3875;46.562;4.898;2023-06-10T02:44:17;20.80;88.00
7666;DHT22;3875;46.562;4.898;2023-06-10T02:46:43;20.80;88.10
7666;DHT22;3875;46.562;4.898;2023-06-10T02:49:09;20.70;88.10
7666;DHT22;3875;46.562;4.898;2023-06-10T02:51:34;20.80;88.20
7666;DHT22;3875;46.562;4.898;2023-06-10T02:54:01;20.80;88.20
7666;DHT22;3875;46.562;4.898;2023-06-10T02:56:27;20.80;88.20
7666;DHT22;3875;46.562;4.898;2023-06-10T02:58:53;20.70;88.30
7666;DHT22;3875;46.562;4.898;2023-06-10T03:01:18;20.70;88.40
7666;DHT22;3875;46.562;4.898;2023-06-10T03:03:45;20.70;88.60
7666;DHT22;3875;46.562;4.898;2023-06-10T03:06:12;20.60;88.70
7666;DHT22;3875;46.562;4.898;2023-06-10T03:08:39;20.60;89.00
7666;DHT22;3875;46.562;4.898;2023-06-10T03:11:05;20.50;89.00
7666;DHT22;3875;46.562;4.898;2023-06-10T03:13:32;20.50;89.20
7666;DHT22;3875;46.562;4.898;2023-06-10T03:15:58;20.50;89.20
7666;DHT22;3875;46.562;4.898;2023-06-10T03:18:27;20.50;89.20
7666;DHT22;3875;46.562;4.898;2023-06-10T03:20:54;20.50;89.40
7666;DHT22;3875;46.562;4.898;2023-06-10T03:23:20;20.40;89.60
7666;DHT22;3875;46.562;4.898;2023-06-10T03:25:46;20.50;89.40
7666;DHT22;3875;46.562;4.898;2023-06-10T03:28:12;20.50;89.30
7666;DHT22;3875;46.562;4.898;2023-06-10T03:30:38;20.60;89.20
7666;DHT22;3875;46.562;4.898;2023-06-10T03:33:03;20.60;89.20
7666;DHT22;3875;46.562;4.898;2023-06-10T03:35:29;20.50;89.30
7666;DHT22;3875;46.562;4.898;2023-06-10T03:37:55;20.60;89.30
7666;DHT22;3875;46.562;4.898;2023-06-10T03:40:21;20.60;89.20
7666;DHT22;3875;46.562;4.898;2023-06-10T03:42:46;20.60;89.30
7666;DHT22;3875;46.562;4.898;2023-06-10T03:45:12;20.60;89.10
7666;DHT22;3875;46.562;4.898;2023-06-10T03:47:38;20.60;89.00
7666;DHT22;3875;46.562;4.898;2023-06-10T03:50:07;20.60;88.90
7666;DHT22;3875;46.562;4.898;2023-06-10T03:52:34;20.60;89.00
7666;DHT22;3875;46.562;4.898;2023-06-10T03:55:00;20.50;89.00
7666;DHT22;3875;46.562;4.898;2023-06-10T03:57:26;20.50;89.10
7666;DHT22;3875;46.562;4.898;2023-06-10T03:59:51;20.50;89.30
7666;DHT22;3875;46.562;4.898;2023-06-10T04:02:17;20.50;89.20
7666;DHT22;3875;46.562;4.898;2023-06-10T04:04:43;20.50;89.10
7666;DHT22;3875;46.562;4.898;2023-06-10T04:07:09;20.50;89.10
7666;DHT22;3875;46.562;4.898;2023-06-10T04:09:35;20.50;89.00
7666;DHT22;3875;46.562;4.898;2023-06-10T04:12:02;20.50;89.00
7666;DHT22;3875;46.562;4.898;2023-06-10T04:14:31;20.50;88.90
7666;DHT22;3875;46.562;4.898;2023-06-10T04:16:57;20.50;89.00
7666;DHT22;3875;46.562;4.898;2023-06-10T04:19:22;20.50;89.00
7666;DHT22;3875;46.562;4.898;2023-06-10T04:21:48;20.50;89.00
7666;DHT22;3875;46.562;4.898;2023-06-10T04:24:13;20.50;88.90
7666;DHT22;3875;46.562;4.898;2023-06-10T04:26:39;20.50;88.80
7666;DHT22;3875;46.562;4.898;2023-06-10T04:29:05;20.50;88.90
7666;DHT22;3875;46.562;4.898;2023-06-10T04:31:31;20.50;89.00
7666;DHT22;3875;46.562;4.898;2023-06-10T04:33:57;20.40;89.10
7666;DHT22;3875;46.562;4.898;2023-06-10T04:36:23;20.40;89.30
7666;DHT22;3875;46.562;4.898;2023-06-10T04:38:49;20.30;89.30
7666;DHT22;3875;46.562;4.898;2023-06-10T04:41:17;20.40;89.40
7666;DHT22;3875;46.562;4.898;2023-06-10T04:43:43;20.40;89.40
7666;DHT22;3875;46.562;4.898;2023-06-10T04:46:09;20.40;89.40
7666;DHT22;3875;46.562;4.898;2023-06-10T04:48:35;20.40;89.60
7666;DHT22;3875;46.562;4.898;2023-06-10T04:51:01;20.40;89.50
7666;DHT22;3875;46.562;4.898;2023-06-10T04:53:27;20.40;89.60
7666;DHT22;3875;46.562;4.898;2023-06-10T04:55:54;20.50;89.40
7666;DHT22;3875;46.562;4.898;2023-06-10T04:58:19;20.60;89.40
7666;DHT22;3875;46.562;4.898;2023-06-10T05:00:45;20.60;89.20
7666;DHT22;3875;46.562;4.898;2023-06-10T05:03:11;20.70;89.10
7666;DHT22;3875;46.562;4.898;2023-06-10T05:05:36;20.80;89.00
7666;DHT22;3875;46.562;4.898;2023-06-10T05:08:02;20.80;88.90
7666;DHT22;3875;46.562;4.898;2023-06-10T05:10:28;20.90;88.90
7666;DHT22;3875;46.562;4.898;2023-06-10T05:12:57;20.90;88.80
7666;DHT22;3875;46.562;4.898;2023-06-10T05:15:23;20.90;88.90
7666;DHT22;3875;46.562;4.898;2023-06-10T05:17:48;21.00;88.80
7666;DHT22;3875;46.562;4.898;2023-06-10T05:20:14;21.10;88.50
7666;DHT22;3875;46.562;4.898;2023-06-10T05:22:40;21.10;88.50
7666;DHT22;3875;46.562;4.898;2023-06-10T05:25:06;21.10;88.50
7666;DHT22;3875;46.562;4.898;2023-06-10T05:27:32;21.10;88.50
7666;DHT22;3875;46.562;4.898;2023-06-10T05:29:58;21.10;88.70
7666;DHT22;3875;46.562;4.898;2023-06-10T05:32:23;21.10;88.80
7666;DHT22;3875;46.562;4.898;2023-06-10T05:34:49;21.10;89.10
7666;DHT22;3875;46.562;4.898;2023-06-10T05:37:15;21.10;89.00
7666;DHT22;3875;46.562;4.898;2023-06-10T05:39:40;21.10;89.00
7666;DHT22;3875;46.562;4.898;2023-06-10T05:42:07;21.10;89.10
7666;DHT22;3875;46.562;4.898;2023-06-10T05:44:33;21.00;89.10
7666;DHT22;3875;46.562;4.898;2023-06-10T05:46:59;21.00;89.20
7666;DHT22;3875;46.562;4.898;2023-06-10T05:49:25;21.00;89.40
7666;DHT22;3875;46.562;4.898;2023-06-10T05:51:51;21.00;89.50
7666;DHT22;3875;46.562;4.898;2023-06-10T05:54:18;21.00;89.50
7666;DHT22;3875;46.562;4.898;2023-06-10T05:56:44;21.00;89.50
7666;DHT22;3875;46.562;4.898;2023-06-10T05:59:09;21.00;89.40
7666;DHT22;3875;46.562;4.898;2023-06-10T06:01:35;21.10;89.40
7666;DHT22;3875;46.562;4.898;2023-06-10T06:04:01;21.20;89.30
7666;DHT22;3875;46.562;4.898;2023-06-10T06:06:26;21.20;89.20
7666;DHT22;3875;46.562;4.898;2023-06-10T06:08:52;21.30;89.20
7666;DHT22;3875;46.562;4.898;2023-06-10T06:11:18;21.30;89.20
7666;DHT22;3875;46.562;4.898;2023-06-10T06:13:43;21.40;89.00
7666;DHT22;3875;46.562;4.898;2023-06-10T06:16:09;21.50;88.70
7666;DHT22;3875;46.562;4.898;2023-06-10T06:18:35;21.50;88.80
7666;DHT22;3875;46.562;4.898;2023-06-10T06:21:00;21.60;88.50
7666;DHT22;3875;46.562;4.898;2023-06-10T06:23:26;21.60;88.50
7666;DHT22;3875;46.562;4.898;2023-06-10T06:25:52;21.70;88.50
7666;DHT22;3875;46.562;4.898;2023-06-10T06:28:17;21.60;88.30
7666;DHT22;3875;46.562;4.898;2023-06-10T06:30:44;21.50;88.30
7666;DHT22;3875;46.562;4.898;2023-06-10T06:33:10;21.50;88.60
7666;DHT22;3875;46.562;4.898;2023-06-10T06:35:36;21.50;88.40
7666;DHT22;3875;46.562;4.898;2023-06-10T06:38:03;21.60;88.60
7666;DHT22;3875;46.562;4.898;2023-06-10T06:40:29;21.70;88.40
7666;DHT22;3875;46.562;4.898;2023-06-10T06:42:55;21.90;88.00
7666;DHT22;3875;46.562;4.898;2023-06-10T06:45:20;22.10;87.70
7666;DHT22;3875;46.562;4.898;2023-06-10T06:47:46;22.40;87.60
7666;DHT22;3875;46.562;4.898;2023-06-10T06:50:12;22.70;86.80
7666;DHT22;3875;46.562;4.898;2023-06-10T06:52:37;22.90;85.70
7666;DHT22;3875;46.562;4.898;2023-06-10T06:55:03;23.50;85.00
7666;DHT22;3875;46.562;4.898;2023-06-10T06:57:29;24.00;84.10
7666;DHT22;3875;46.562;4.898;2023-06-10T06:59:55;24.30;83.50
7666;DHT22;3875;46.562;4.898;2023-06-10T07:02:20;24.50;82.40
7666;DHT22;3875;46.562;4.898;2023-06-10T07:04:46;24.90;80.20
7666;DHT22;3875;46.562;4.898;2023-06-10T07:07:14;25.20;79.90
7666;DHT22;3875;46.562;4.898;2023-06-10T07:09:40;25.30;79.00
7666;DHT22;3875;46.562;4.898;2023-06-10T07:12:06;25.30;79.00
7666;DHT22;3875;46.562;4.898;2023-06-10T07:14:32;25.10;79.20
7666;DHT22;3875;46.562;4.898;2023-06-10T07:16:58;24.80;78.70
7666;DHT22;3875;46.562;4.898;2023-06-10T07:19:24;24.60;79.50
7666;DHT22;3875;46.562;4.898;2023-06-10T07:21:49;24.80;79.40
7666;DHT22;3875;46.562;4.898;2023-06-10T07:24:15;24.80;79.40
7666;DHT22;3875;46.562;4.898;2023-06-10T07:26:41;24.80;78.90
7666;DHT22;3875;46.562;4.898;2023-06-10T07:29:06;24.50;79.70
7666;DHT22;3875;46.562;4.898;2023-06-10T07:31:32;25.00;79.50
7666;DHT22;3875;46.562;4.898;2023-06-10T07:33:58;25.10;78.60
7666;DHT22;3875;46.562;4.898;2023-06-10T07:36:23;25.20;78.40
7666;DHT22;3875;46.562;4.898;2023-06-10T07:38:49;25.30;77.90
7666;DHT22;3875;46.562;4.898;2023-06-10T07:41:14;25.30;77.30
7666;DHT22;3875;46.562;4.898;2023-06-10T07:43:43;25.30;77.80
7666;DHT22;3875;46.562;4.898;2023-06-10T07:46:08;25.30;77.40
7666;DHT22;3875;46.562;4.898;2023-06-10T07:48:34;25.40;78.10
7666;DHT22;3875;46.562;4.898;2023-06-10T07:51:00;25.30;77.80
7666;DHT22;3875;46.562;4.898;2023-06-10T07:53:25;25.20;78.00
7666;DHT22;3875;46.562;4.898;2023-06-10T07:55:51;25.60;76.70
7666;DHT22;3875;46.562;4.898;2023-06-10T07:58:16;25.50;77.40
7666;DHT22;3875;46.562;4.898;2023-06-10T08:00:42;25.50;77.60
7666;DHT22;3875;46.562;4.898;2023-06-10T08:03:08;25.30;78.20
7666;DHT22;3875;46.562;4.898;2023-06-10T08:05:33;25.20;78.50
7666;DHT22;3875;46.562;4.898;2023-06-10T08:07:59;25.10;78.70
7666;DHT22;3875;46.562;4.898;2023-06-10T08:10:25;25.10;79.00
7666;DHT22;3875;46.562;4.898;2023-06-10T08:12:50;25.10;79.00
7666;DHT22;3875;46.562;4.898;2023-06-10T08:15:16;25.10;78.70
7666;DHT22;3875;46.562;4.898;2023-06-10T08:17:42;25.10;78.90
7666;DHT22;3875;46.562;4.898;2023-06-10T08:20:07;25.30;78.70
7666;DHT22;3875;46.562;4.898;2023-06-10T08:22:33;25.40;78.10
7666;DHT22;3875;46.562;4.898;2023-06-10T08:24:59;25.70;77.40
7666;DHT22;3875;46.562;4.898;2023-06-10T08:27:24;25.90;77.60
7666;DHT22;3875;46.562;4.898;2023-06-10T08:29:50;26.10;76.70
7666;DHT22;3875;46.562;4.898;2023-06-10T08:32:16;26.20;77.00
7666;DHT22;3875;46.562;4.898;2023-06-10T08:34:41;26.70;75.50
7666;DHT22;3875;46.562;4.898;2023-06-10T08:37:07;26.90;75.40
7666;DHT22;3875;46.562;4.898;2023-06-10T08:39:33;27.10;74.10
7666;DHT22;3875;46.562;4.898;2023-06-10T08:42:17;27.00;73.20
7666;DHT22;3875;46.562;4.898;2023-06-10T08:44:46;27.00;74.20
7666;DHT22;3875;46.562;4.898;2023-06-10T08:47:16;27.10;74.40
7666;DHT22;3875;46.562;4.898;2023-06-10T08:49:46;27.30;73.60
7666;DHT22;3875;46.562;4.898;2023-06-10T08:52:19;27.40;73.80
7666;DHT22;3875;46.562;4.898;2023-06-10T08:55:00;27.70;73.10
7666;DHT22;3875;46.562;4.898;2023-06-10T08:57:29;27.80;72.30
7666;DHT22;3875;46.562;4.898;2023-06-10T08:59:57;28.00;71.90
7666;DHT22;3875;46.562;4.898;2023-06-10T09:02:23;28.10;71.70
7666;DHT22;3875;46.562;4.898;2023-06-10T09:04:50;28.60;70.40
7666;DHT22;3875;46.562;4.898;2023-06-10T09:07:17;28.90;70.80
7666;DHT22;3875;46.562;4.898;2023-06-10T09:09:43;29.10;69.90
7666;DHT22;3875;46.562;4.898;2023-06-10T09:12:11;29.20;69.90
7666;DHT22;3875;46.562;4.898;2023-06-10T09:14:37;29.00;69.80
7666;DHT22;3875;46.562;4.898;2023-06-10T09:17:04;29.00;68.90
7666;DHT22;3875;46.562;4.898;2023-06-10T09:19:30;28.40;69.90
7666;DHT22;3875;46.562;4.898;2023-06-10T09:21:56;27.90;70.80
7666;DHT22;3875;46.562;4.898;2023-06-10T09:24:22;27.70;71.10
7666;DHT22;3875;46.562;4.898;2023-06-10T09:26:49;27.30;71.60
7666;DHT22;3875;46.562;4.898;2023-06-10T09:29:16;27.00;71.80
7666;DHT22;3875;46.562;4.898;2023-06-10T09:31:43;26.60;72.60
7666;DHT22;3875;46.562;4.898;2023-06-10T09:34:15;26.40;73.90
7666;DHT22;3875;46.562;4.898;2023-06-10T09:36:42;26.30;74.00
7666;DHT22;3875;46.562;4.898;2023-06-10T09:39:16;26.20;74.40
7666;DHT22;3875;46.562;4.898;2023-06-10T09:41:43;26.20;74.10
7666;DHT22;3875;46.562;4.898;2023-06-10T09:44:20;26.20;74.40
7666;DHT22;3875;46.562;4.898;2023-06-10T09:46:48;26.30;74.70
7666;DHT22;3875;46.562;4.898;2023-06-10T09:49:14;26.40;74.00
7666;DHT22;3875;46.562;4.898;2023-06-10T09:51:53;26.30;74.10
7666;DHT22;3875;46.562;4.898;2023-06-10T09:54:20;26.30;74.40
7666;DHT22;3875;46.562;4.898;2023-06-10T09:56:51;26.30;74.60
7666;DHT22;3875;46.562;4.898;2023-06-10T09:59:28;26.30;74.50
7666;DHT22;3875;46.562;4.898;2023-06-10T10:01:56;26.40;74.40
7666;DHT22;3875;46.562;4.898;2023-06-10T10:04:26;26.40;74.60
7666;DHT22;3875;46.562;4.898;2023-06-10T10:06:52;26.70;74.00
7666;DHT22;3875;46.562;4.898;2023-06-10T10:09:18;26.90;73.80
7666;DHT22;3875;46.562;4.898;2023-06-10T10:11:44;26.90;73.50
7666;DHT22;3875;46.562;4.898;2023-06-10T10:14:10;27.00;73.60
7666;DHT22;3875;46.562;4.898;2023-06-10T10:16:37;27.40;72.50
7666;DHT22;3875;46.562;4.898;2023-06-10T10:19:30;27.50;72.60
7666;DHT22;3875;46.562;4.898;2023-06-10T10:22:08;27.50;72.30
7666;DHT22;3875;46.562;4.898;2023-06-10T10:24:44;27.80;71.40
7666;DHT22;3875;46.562;4.898;2023-06-10T10:27:18;27.80;70.70
7666;DHT22;3875;46.562;4.898;2023-06-10T10:29:48;27.80;71.40
7666;DHT22;3875;46.562;4.898;2023-06-10T10:32:16;28.00;70.40
7666;DHT22;3875;46.562;4.898;2023-06-10T10:35:12;28.30;70.30
7666;DHT22;3875;46.562;4.898;2023-06-10T10:37:39;28.50;69.50
7666;DHT22;3875;46.562;4.898;2023-06-10T10:40:06;28.80;68.70
7666;DHT22;3875;46.562;4.898;2023-06-10T10:42:33;29.00;67.90
7666;DHT22;3875;46.562;4.898;2023-06-10T10:44:59;28.90;67.80
7666;DHT22;3875;46.562;4.898;2023-06-10T10:47:27;28.70;67.90
7666;DHT22;3875;46.562;4.898;2023-06-10T10:49:56;28.40;68.60
7666;DHT22;3875;46.562;4.898;2023-06-10T10:52:25;28.40;68.50
7666;DHT22;3875;46.562;4.898;2023-06-10T10:54:53;28.50;68.30
7666;DHT22;3875;46.562;4.898;2023-06-10T10:57:23;28.40;67.40
7666;DHT22;3875;46.562;4.898;2023-06-10T11:02:19;28.30;68.60
7666;DHT22;3875;46.562;4.898;2023-06-10T11:04:57;29.00;67.30
7666;DHT22;3875;46.562;4.898;2023-06-10T11:07:25;29.20;66.70
7666;DHT22;3875;46.562;4.898;2023-06-10T11:10:11;29.40;65.40
7666;DHT22;3875;46.562;4.898;2023-06-10T11:15:31;29.70;65.30
7666;DHT22;3875;46.562;4.898;2023-06-10T11:18:26;29.80;65.10
7666;DHT22;3875;46.562;4.898;2023-06-10T11:20:59;30.20;63.40
7666;DHT22;3875;46.562;4.898;2023-06-10T11:26:19;30.60;62.90
7666;DHT22;3875;46.562;4.898;2023-06-10T11:31:21;31.00;61.50
7666;DHT22;3875;46.562;4.898;2023-06-10T11:33:48;31.30;60.90
7666;DHT22;3875;46.562;4.898;2023-06-10T11:36:14;31.60;61.50
7666;DHT22;3875;46.562;4.898;2023-06-10T11:38:43;31.10;61.90
7666;DHT22;3875;46.562;4.898;2023-06-10T11:41:11;31.70;61.90
7666;DHT22;3875;46.562;4.898;2023-06-10T11:43:40;32.10;61.60
7666;DHT22;3875;46.562;4.898;2023-06-10T11:46:08;31.80;59.90
7666;DHT22;3875;46.562;4.898;2023-06-10T11:48:33;31.00;61.30
7666;DHT22;3875;46.562;4.898;2023-06-10T11:50:59;30.80;62.20
7666;DHT22;3875;46.562;4.898;2023-06-10T11:53:25;30.70;62.20
7666;DHT22;3875;46.562;4.898;2023-06-10T11:55:51;31.20;62.80
7666;DHT22;3875;46.562;4.898;2023-06-10T11:58:19;31.60;61.50
7666;DHT22;3875;46.562;4.898;2023-06-10T12:00:49;32.00;59.70
7666;DHT22;3875;46.562;4.898;2023-06-10T12:03:16;31.70;60.60
7666;DHT22;3875;46.562;4.898;2023-06-10T12:06:05;31.60;61.00
7666;DHT22;3875;46.562;4.898;2023-06-10T12:08:32;31.20;60.50
7666;DHT22;3875;46.562;4.898;2023-06-10T12:10:59;31.70;60.70
7666;DHT22;3875;46.562;4.898;2023-06-10T12:13:27;31.80;60.90
7666;DHT22;3875;46.562;4.898;2023-06-10T12:15:53;31.40;61.60
7666;DHT22;3875;46.562;4.898;2023-06-10T12:18:23;31.20;61.10
7666;DHT22;3875;46.562;4.898;2023-06-10T12:20:50;30.70;60.90
7666;DHT22;3875;46.562;4.898;2023-06-10T12:23:17;30.60;62.50
7666;DHT22;3875;46.562;4.898;2023-06-10T12:25:54;30.80;62.10
7666;DHT22;3875;46.562;4.898;2023-06-10T12:28:24;31.90;59.90
7666;DHT22;3875;46.562;4.898;2023-06-10T12:30:50;32.70;58.00
7666;DHT22;3875;46.562;4.898;2023-06-10T12:33:19;33.00;57.90
7666;DHT22;3875;46.562;4.898;2023-06-10T12:35:49;33.00;57.70
7666;DHT22;3875;46.562;4.898;2023-06-10T12:38:24;33.20;58.00
7666;DHT22;3875;46.562;4.898;2023-06-10T12:40:53;33.50;56.60
7666;DHT22;3875;46.562;4.898;2023-06-10T12:43:22;33.80;56.50
7666;DHT22;3875;46.562;4.898;2023-06-10T12:45:48;33.40;57.00
7666;DHT22;3875;46.562;4.898;2023-06-10T12:48:24;33.20;57.70
7666;DHT22;3875;46.562;4.898;2023-06-10T12:50:54;32.60;57.80
7666;DHT22;3875;46.562;4.898;2023-06-10T12:53:21;32.00;59.30
7666;DHT22;3875;46.562;4.898;2023-06-10T12:55:48;32.20;59.30
7666;DHT22;3875;46.562;4.898;2023-06-10T12:58:14;31.70;59.70
7666;DHT22;3875;46.562;4.898;2023-06-10T13:00:40;31.30;60.60
7666;DHT22;3875;46.562;4.898;2023-06-10T13:03:08;31.20;61.20
7666;DHT22;3875;46.562;4.898;2023-06-10T13:05:35;31.30;61.10
7666;DHT22;3875;46.562;4.898;2023-06-10T13:08:03;31.20;60.80
7666;DHT22;3875;46.562;4.898;2023-06-10T13:10:29;31.10;60.40
7666;DHT22;3875;46.562;4.898;2023-06-10T13:12:54;31.40;60.60
7666;DHT22;3875;46.562;4.898;2023-06-10T13:15:20;31.60;60.70
7666;DHT22;3875;46.562;4.898;2023-06-10T13:17:46;31.80;60.00
7666;DHT22;3875;46.562;4.898;2023-06-10T13:20:16;31.90;60.30
7666;DHT22;3875;46.562;4.898;2023-06-10T13:22:42;32.00;59.80
7666;DHT22;3875;46.562;4.898;2023-06-10T13:25:08;32.20;59.40
7666;DHT22;3875;46.562;4.898;2023-06-10T13:27:35;32.60;59.10
7666;DHT22;3875;46.562;4.898;2023-06-10T13:30:03;32.70;57.70
7666;DHT22;3875;46.562;4.898;2023-06-10T13:32:30;32.80;57.30
7666;DHT22;3875;46.562;4.898;2023-06-10T13:34:55;32.60;58.50
7666;DHT22;3875;46.562;4.898;2023-06-10T13:37:22;32.50;58.30
7666;DHT22;3875;46.562;4.898;2023-06-10T13:39:48;32.70;58.60
7666;DHT22;3875;46.562;4.898;2023-06-10T13:42:16;32.70;58.10
7666;DHT22;3875;46.562;4.898;2023-06-10T13:44:42;32.60;57.80
7666;DHT22;3875;46.562;4.898;2023-06-10T13:47:08;32.70;56.90
7666;DHT22;3875;46.562;4.898;2023-06-10T13:49:33;32.40;57.10
7666;DHT22;3875;46.562;4.898;2023-06-10T13:51:59;31.80;57.60
7666;DHT22;3875;46.562;4.898;2023-06-10T13:54:24;31.30;58.60
7666;DHT22;3875;46.562;4.898;2023-06-10T13:56:50;30.90;59.50
7666;DHT22;3875;46.562;4.898;2023-06-10T13:59:16;30.60;60.00
7666;DHT22;3875;46.562;4.898;2023-06-10T14:01:41;30.40;60.50
7666;DHT22;3875;46.562;4.898;2023-06-10T14:04:07;30.00;59.80
7666;DHT22;3875;46.562;4.898;2023-06-10T14:06:33;30.40;59.60
7666;DHT22;3875;46.562;4.898;2023-06-10T14:09:02;30.30;60.10
7666;DHT22;3875;46.562;4.898;2023-06-10T14:11:28;30.20;60.90
7666;DHT22;3875;46.562;4.898;2023-06-10T14:13:53;30.10;60.60
7666;DHT22;3875;46.562;4.898;2023-06-10T14:16:21;29.90;60.60
7666;DHT22;3875;46.562;4.898;2023-06-10T14:18:47;29.90;61.20
7666;DHT22;3875;46.562;4.898;2023-06-10T14:21:13;29.90;61.80
7666;DHT22;3875;46.562;4.898;2023-06-10T14:23:38;29.90;61.70
7666;DHT22;3875;46.562;4.898;2023-06-10T14:26:04;30.00;61.60
7666;DHT22;3875;46.562;4.898;2023-06-10T14:28:32;29.30;62.00
7666;DHT22;3875;46.562;4.898;2023-06-10T14:30:58;29.20;62.80
7666;DHT22;3875;46.562;4.898;2023-06-10T14:33:24;28.80;64.90
7666;DHT22;3875;46.562;4.898;2023-06-10T14:35:49;28.40;65.80
7666;DHT22;3875;46.562;4.898;2023-06-10T14:38:15;28.40;66.10
7666;DHT22;3875;46.562;4.898;2023-06-10T14:40:41;28.40;66.50
7666;DHT22;3875;46.562;4.898;2023-06-10T14:43:06;28.80;66.10
7666;DHT22;3875;46.562;4.898;2023-06-10T14:45:39;29.10;65.30
7666;DHT22;3875;46.562;4.898;2023-06-10T14:48:06;29.20;64.90
7666;DHT22;3875;46.562;4.898;2023-06-10T14:50:35;29.10;64.90
7666;DHT22;3875;46.562;4.898;2023-06-10T14:53:01;28.70;65.10
7666;DHT22;3875;46.562;4.898;2023-06-10T14:55:27;28.50;65.60
7666;DHT22;3875;46.562;4.898;2023-06-10T14:57:53;28.60;65.70
7666;DHT22;3875;46.562;4.898;2023-06-10T15:00:19;28.80;65.60
7666;DHT22;3875;46.562;4.898;2023-06-10T15:02:49;29.00;65.60
7666;DHT22;3875;46.562;4.898;2023-06-10T15:05:16;29.30;65.20
7666;DHT22;3875;46.562;4.898;2023-06-10T15:07:43;29.50;64.70
7666;DHT22;3875;46.562;4.898;2023-06-10T15:10:09;29.60;65.10
7666;DHT22;3875;46.562;4.898;2023-06-10T15:12:35;29.80;64.70
7666;DHT22;3875;46.562;4.898;2023-06-10T15:15:01;30.00;63.80
7666;DHT22;3875;46.562;4.898;2023-06-10T15:17:28;30.00;63.10
7666;DHT22;3875;46.562;4.898;2023-06-10T15:19:54;30.00;64.00
7666;DHT22;3875;46.562;4.898;2023-06-10T15:22:20;30.00;63.50
7666;DHT22;3875;46.562;4.898;2023-06-10T15:24:45;30.50;63.30
7666;DHT22;3875;46.562;4.898;2023-06-10T15:27:11;30.60;62.30
7666;DHT22;3875;46.562;4.898;2023-06-10T15:29:36;30.70;62.20
7666;DHT22;3875;46.562;4.898;2023-06-10T15:32:02;30.80;61.60
7666;DHT22;3875;46.562;4.898;2023-06-10T15:34:28;30.70;61.20
7666;DHT22;3875;46.562;4.898;2023-06-10T15:36:54;31.30;61.60
7666;DHT22;3875;46.562;4.898;2023-06-10T15:39:19;31.70;60.70
7666;DHT22;3875;46.562;4.898;2023-06-10T15:41:45;32.20;59.80
7666;DHT22;3875;46.562;4.898;2023-06-10T15:44:11;32.60;58.80
7666;DHT22;3875;46.562;4.898;2023-06-10T15:46:37;33.00;58.80
7666;DHT22;3875;46.562;4.898;2023-06-10T15:49:03;33.10;57.40
7666;DHT22;3875;46.562;4.898;2023-06-10T15:51:28;33.40;57.20
7666;DHT22;3875;46.562;4.898;2023-06-10T15:53:54;33.70;56.60
7666;DHT22;3875;46.562;4.898;2023-06-10T15:56:20;33.90;55.70
7666;DHT22;3875;46.562;4.898;2023-06-10T15:58:46;34.00;55.00
7666;DHT22;3875;46.562;4.898;2023-06-10T16:01:12;34.40;54.10
7666;DHT22;3875;46.562;4.898;2023-06-10T16:03:39;34.40;55.10
7666;DHT22;3875;46.562;4.898;2023-06-10T16:06:05;34.50;53.30
7666;DHT22;3875;46.562;4.898;2023-06-10T16:08:31;34.60;53.90
7666;DHT22;3875;46.562;4.898;2023-06-10T16:10:57;35.10;51.80
7666;DHT22;3875;46.562;4.898;2023-06-10T16:13:23;35.20;51.30
7666;DHT22;3875;46.562;4.898;2023-06-10T16:15:48;34.90;50.90
7666;DHT22;3875;46.562;4.898;2023-06-10T16:18:14;34.80;52.10